sensor_id;sensor_type;location;lat;lon;timestamp;pressure;altitude;pressure_sealevel;temperature;humidity
63006;BME280;53704;52.532;6.426;2023-05-02T00:01:43;101855.72;;;9.81;100.00
63006;BME280;53704;52.532;6.426;2023-05-02T00:04:09;101867.25;;;9.72;100.00
63006;BME280;53704;52.532;6.426;2023-05-02T00:06:34;101870.53;;;9.75;100.00
63006;BME280;53704;52.532;6.426;2023-05-02T00:09:00;101856.75;;;9.90;100.00
63006;BME280;53704;52.532;6.426;2023-05-02T00:11:25;101860.16;;;9.92;100.00
63006;BME280;53704;52.532;6.426;2023-05-02T00:13:50;101866.25;;;9.94;100.00
63006;BME280;53704;52.532;6.426;2023-05-02T00:16:16;101858.78;;;9.76;100.00
63006;BME280;53704;52.532;6.426;2023-05-02T00:18:43;101859.34;;;10.01;100.00
63006;BME280;53704;52.532;6.426;2023-05-02T00:21:08;101858.78;;;9.76;100.00
63006;BME280;53704;52.532;6.426;2023-05-02T00:23:34;101861.41;;;9.88;100.00
63006;BME280;53704;52.532;6.426;2023-05-02T00:25:59;101864.44;;;9.73;100.00
63006;BME280;53704;52.532;6.426;2023-05-02T00:28:25;101864.25;;;9.96;100.00
63006;BME280;53704;52.532;6.426;2023-05-02T00:30:51;101873.34;;;9.95;100.00
63006;BME280;53704;52.532;6.426;2023-05-02T00:33:17;101863.50;;;9.84;100.00
63006;BME280;53704;52.532;6.426;2023-05-02T00:35:42;101869.34;;;9.89;100.00
63006;BME280;53704;52.532;6.426;2023-05-02T00:38:08;101866.38;;;9.92;100.00
63006;BME280;53704;52.532;6.426;2023-05-02T00:40:44;101873.44;;;9.84;100.00
63006;BME280;53704;52.532;6.426;2023-05-02T00:43:10;101878.19;;;9.80;100.00
63006;BME280;53704;52.532;6.426;2023-05-02T00:45:37;101890.97;;;9.88;100.00
63006;BME280;53704;52.532;6.426;2023-05-02T00:48:05;101885.44;;;9.80;100.00
63006;BME280;53704;52.532;6.426;2023-05-02T00:50:33;101883.66;;;9.69;100.00
63006;BME280;53704;52.532;6.426;2023-05-02T00:52:59;101892.19;;;9.74;100.00
63006;BME280;53704;52.532;6.426;2023-05-02T00:55:25;101899.53;;;9.72;100.00
63006;BME280;53704;52.532;6.426;2023-05-02T00:57:50;101904.97;;;9.60;100.00
63006;BME280;53704;52.532;6.426;2023-05-02T01:00:16;101902.50;;;9.48;100.00
63006;BME280;53704;52.532;6.426;2023-05-02T01:02:47;101907.56;;;9.30;100.00
63006;BME280;53704;52.532;6.426;2023-05-02T01:05:26;101902.94;;;9.32;100.00
63006;BME280;53704;52.532;6.426;2023-05-02T01:13:55;101902.59;;;9.25;100.00
63006;BME280;53704;52.532;6.426;2023-05-02T01:16:23;101909.25;;;9.10;100.00
63006;BME280;53704;52.532;6.426;2023-05-02T01:18:50;101916.31;;;9.11;100.00
63006;BME280;53704;52.532;6.426;2023-05-02T01:21:16;101916.94;;;9.14;100.00
63006;BME280;53704;52.532;6.426;2023-05-02T01:24:02;101921.69;;;9.11;100.00
63006;BME280;53704;52.532;6.426;2023-05-02T01:26:47;101918.28;;;9.09;100.00
63006;BME280;53704;52.532;6.426;2023-05-02T01:29:14;101922.25;;;9.26;100.00
63006;BME280;53704;52.532;6.426;2023-05-02T01:31:45;101922.06;;;9.06;100.00
63006;BME280;53704;52.532;6.426;2023-05-02T01:34:12;101919.91;;;9.00;100.00
63006;BME280;53704;52.532;6.426;2023-05-02T01:36:41;101924.94;;;9.26;100.00
63006;BME280;53704;52.532;6.426;2023-05-02T01:39:09;101922.94;;;9.07;100.00
63006;BME280;53704;52.532;6.426;2023-05-02T01:41:36;101925.00;;;9.14;100.00
63006;BME280;53704;52.532;6.426;2023-05-02T01:44:02;101944.44;;;9.07;100.00
63006;BME280;53704;52.532;6.426;2023-05-02T01:46:34;101937.00;;;8.99;100.00
63006;BME280;53704;52.532;6.426;2023-05-02T01:49:02;101934.59;;;8.84;100.00
63006;BME280;53704;52.532;6.426;2023-05-02T01:51:32;101944.22;;;8.98;100.00
63006;BME280;53704;52.532;6.426;2023-05-02T01:54:00;101947.88;;;8.97;100.00
63006;BME280;53704;52.532;6.426;2023-05-02T01:56:29;101949.22;;;8.92;100.00
63006;BME280;53704;52.532;6.426;2023-05-02T01:58:56;101952.56;;;8.84;100.00
63006;BME280;53704;52.532;6.426;2023-05-02T02:01:23;101945.66;;;9.02;100.00
63006;BME280;53704;52.532;6.426;2023-05-02T02:03:53;101949.22;;;8.92;100.00
63006;BME280;53704;52.532;6.426;2023-05-02T02:06:21;101952.53;;;8.95;100.00
63006;BME280;53704;52.532;6.426;2023-05-02T02:08:47;101959.28;;;9.11;100.00
63006;BME280;53704;52.532;6.426;2023-05-02T02:11:16;101961.03;;;9.00;100.00
63006;BME280;53704;52.532;6.426;2023-05-02T02:13:48;101964.66;;;9.11;100.00
63006;BME280;53704;52.532;6.426;2023-05-02T02:16:23;101962.88;;;9.00;100.00
63006;BME280;53704;52.532;6.426;2023-05-02T02:18:50;101967.00;;;9.04;100.00
63006;BME280;53704;52.532;6.426;2023-05-02T02:21:19;101972.78;;;8.88;100.00
63006;BME280;53704;52.532;6.426;2023-05-02T02:23:47;101971.53;;;9.03;100.00
63006;BME280;53704;52.532;6.426;2023-05-02T02:26:16;101975.31;;;9.01;100.00
63006;BME280;53704;52.532;6.426;2023-05-02T02:28:43;101972.50;;;9.02;100.00
63006;BME280;53704;52.532;6.426;2023-05-02T02:31:10;101972.34;;;9.15;100.00
63006;BME280;53704;52.532;6.426;2023-05-02T02:33:35;101974.22;;;9.03;100.00
63006;BME280;53704;52.532;6.426;2023-05-02T02:36:28;101967.88;;;8.93;100.00
63006;BME280;53704;52.532;6.426;2023-05-02T02:39:03;101973.00;;;8.96;100.00
63006;BME280;53704;52.532;6.426;2023-05-02T02:41:48;101988.28;;;8.96;100.00
63006;BME280;53704;52.532;6.426;2023-05-02T02:44:46;101989.03;;;8.86;100.00
63006;BME280;53704;52.532;6.426;2023-05-02T02:50:42;101995.63;;;8.82;100.00
63006;BME280;53704;52.532;6.426;2023-05-02T02:53:17;102003.28;;;8.87;100.00
63006;BME280;53704;52.532;6.426;2023-05-02T02:56:15;101998.44;;;8.81;100.00
63006;BME280;53704;52.532;6.426;2023-05-02T02:59:02;102006.50;;;8.81;100.00
63006;BME280;53704;52.532;6.426;2023-05-02T03:01:30;102017.09;;;8.94;100.00
63006;BME280;53704;52.532;6.426;2023-05-02T03:03:56;102013.91;;;8.77;100.00
63006;BME280;53704;52.532;6.426;2023-05-02T03:06:22;102019.28;;;8.77;100.00
63006;BME280;53704;52.532;6.426;2023-05-02T03:08:48;102018.28;;;9.01;100.00
63006;BME280;53704;52.532;6.426;2023-05-02T03:11:14;102028.94;;;8.80;100.00
63006;BME280;53704;52.532;6.426;2023-05-02T03:13:40;102030.63;;;8.69;100.00
63006;BME280;53704;52.532;6.426;2023-05-02T03:18:39;102029.69;;;8.59;100.00
63006;BME280;53704;52.532;6.426;2023-05-02T03:21:05;102039.94;;;8.65;100.00
63006;BME280;53704;52.532;6.426;2023-05-02T03:23:30;102048.09;;;8.53;100.00
63006;BME280;53704;52.532;6.426;2023-05-02T03:25:55;102059.19;;;8.59;100.00
63006;BME280;53704;52.532;6.426;2023-05-02T03:28:21;102070.53;;;8.51;100.00
63006;BME280;53704;52.532;6.426;2023-05-02T03:30:46;102070.06;;;8.22;100.00
63006;BME280;53704;52.532;6.426;2023-05-02T03:33:12;102078.84;;;8.13;100.00
63006;BME280;53704;52.532;6.426;2023-05-02T03:35:37;102085.72;;;7.93;100.00
63006;BME280;53704;52.532;6.426;2023-05-02T03:38:03;102093.47;;;7.85;100.00
63006;BME280;53704;52.532;6.426;2023-05-02T03:40:28;102099.69;;;7.61;100.00
63006;BME280;53704;52.532;6.426;2023-05-02T03:42:54;102089.53;;;7.53;100.00
63006;BME280;53704;52.532;6.426;2023-05-02T03:45:19;102097.31;;;7.69;100.00
63006;BME280;53704;52.532;6.426;2023-05-02T03:47:44;102090.44;;;7.65;100.00
63006;BME280;53704;52.532;6.426;2023-05-02T03:50:10;102111.44;;;7.47;100.00
63006;BME280;53704;52.532;6.426;2023-05-02T03:52:35;102116.28;;;7.42;100.00
63006;BME280;53704;52.532;6.426;2023-05-02T03:55:01;102117.66;;;7.35;100.00
63006;BME280;53704;52.532;6.426;2023-05-02T03:57:29;102127.97;;;7.28;100.00
63006;BME280;53704;52.532;6.426;2023-05-02T03:59:56;102122.84;;;7.25;100.00
63006;BME280;53704;52.532;6.426;2023-05-02T04:02:21;102125.84;;;7.20;100.00
63006;BME280;53704;52.532;6.426;2023-05-02T04:04:47;102135.75;;;7.07;100.00
63006;BME280;53704;52.532;6.426;2023-05-02T04:07:13;102146.22;;;7.23;100.00
63006;BME280;53704;52.532;6.426;2023-05-02T04:09:44;102151.97;;;7.30;100.00
63006;BME280;53704;52.532;6.426;2023-05-02T04:12:10;102158.19;;;7.17;100.00
63006;BME280;53704;52.532;6.426;2023-05-02T04:14:35;102155.00;;;7.12;100.00
63006;BME280;53704;52.532;6.426;2023-05-02T04:17:01;102162.31;;;7.10;100.00
63006;BME280;53704;52.532;6.426;2023-05-02T04:19:26;102172.69;;;7.15;100.00
63006;BME280;53704;52.532;6.426;2023-05-02T04:21:51;102168.09;;;7.04;100.00
63006;BME280;53704;52.532;6.426;2023-05-02T04:24:17;102178.69;;;6.93;100.00
63006;BME280;53704;52.532;6.426;2023-05-02T04:26:43;102174.19;;;6.93;100.00
63006;BME280;53704;52.532;6.426;2023-05-02T04:29:11;102179.97;;;6.87;100.00
63006;BME280;53704;52.532;6.426;2023-05-02T04:31:38;102183.69;;;6.84;100.00
63006;BME280;53704;52.532;6.426;2023-05-02T04:34:03;102187.16;;;6.86;100.00
63006;BME280;53704;52.532;6.426;2023-05-02T04:36:29;102188.22;;;6.84;100.00
63006;BME280;53704;52.532;6.426;2023-05-02T04:38:54;102200.63;;;6.85;100.00
63006;BME280;53704;52.532;6.426;2023-05-02T04:41:20;102202.97;;;6.77;100.00
63006;BME280;53704;52.532;6.426;2023-05-02T04:43:45;102213.25;;;6.83;100.00
63006;BME280;53704;52.532;6.426;2023-05-02T04:46:11;102217.53;;;6.85;100.00
63006;BME280;53704;52.532;6.426;2023-05-02T04:48:36;102213.03;;;6.86;100.00
63006;BME280;53704;52.532;6.426;2023-05-02T04:51:06;102219.13;;;6.75;100.00
63006;BME280;53704;52.532;6.426;2023-05-02T04:53:32;102224.34;;;6.64;100.00
63006;BME280;53704;52.532;6.426;2023-05-02T04:55:57;102233.38;;;6.76;100.00
63006;BME280;53704;52.532;6.426;2023-05-02T04:58:23;102229.50;;;6.67;100.00
63006;BME280;53704;52.532;6.426;2023-05-02T05:00:48;102234.97;;;6.78;100.00
63006;BME280;53704;52.532;6.426;2023-05-02T05:03:14;102239.56;;;6.63;100.00
63006;BME280;53704;52.532;6.426;2023-05-02T05:05:39;102245.44;;;6.68;100.00
63006;BME280;53704;52.532;6.426;2023-05-02T05:08:05;102252.63;;;6.68;100.00
63006;BME280;53704;52.532;6.426;2023-05-02T05:10:30;102249.41;;;6.63;100.00
63006;BME280;53704;52.532;6.426;2023-05-02T05:12:56;102252.31;;;6.60;100.00
63006;BME280;53704;52.532;6.426;2023-05-02T05:15:21;102258.81;;;6.56;100.00
63006;BME280;53704;52.532;6.426;2023-05-02T05:17:48;102258.59;;;6.59;100.00
63006;BME280;53704;52.532;6.426;2023-05-02T05:20:14;102262.22;;;6.58;100.00
63006;BME280;53704;52.532;6.426;2023-05-02T05:22:39;102265.69;;;6.60;100.00
63006;BME280;53704;52.532;6.426;2023-05-02T05:25:06;102277.19;;;6.47;100.00
63006;BME280;53704;52.532;6.426;2023-05-02T05:27:35;102272.28;;;6.54;100.00
63006;BME280;53704;52.532;6.426;2023-05-02T05:30:02;102280.09;;;6.57;100.00
63006;BME280;53704;52.532;6.426;2023-05-02T05:32:28;102290.16;;;6.54;100.00
63006;BME280;53704;52.532;6.426;2023-05-02T05:34:56;102299.88;;;6.55;100.00
63006;BME280;53704;52.532;6.426;2023-05-02T05:37:22;102303.53;;;6.54;100.00
63006;BME280;53704;52.532;6.426;2023-05-02T05:39:47;102300.91;;;6.66;100.00
63006;BME280;53704;52.532;6.426;2023-05-02T05:42:12;102306.69;;;6.73;100.00
63006;BME280;53704;52.532;6.426;2023-05-02T05:44:38;102309.88;;;6.65;100.00
63006;BME280;53704;52.532;6.426;2023-05-02T05:47:04;102313.44;;;6.66;100.00
63006;BME280;53704;52.532;6.426;2023-05-02T05:49:30;102313.84;;;6.60;100.00
63006;BME280;53704;52.532;6.426;2023-05-02T05:51:56;102321.88;;;6.60;100.00
63006;BME280;53704;52.532;6.426;2023-05-02T05:54:21;102328.16;;;6.59;100.00
63006;BME280;53704;52.532;6.426;2023-05-02T05:56:47;102325.16;;;6.50;100.00
63006;BME280;53704;52.532;6.426;2023-05-02T05:59:13;102327.78;;;6.65;100.00
63006;BME280;53704;52.532;6.426;2023-05-02T06:01:38;102324.34;;;6.63;100.00
63006;BME280;53704;52.532;6.426;2023-05-02T06:04:06;102333.13;;;6.65;100.00
63006;BME280;53704;52.532;6.426;2023-05-02T06:06:32;102334.94;;;6.64;100.00
63006;BME280;53704;52.532;6.426;2023-05-02T06:08:57;102348.06;;;6.55;100.00
63006;BME280;53704;52.532;6.426;2023-05-02T06:11:23;102341.16;;;6.65;100.00
63006;BME280;53704;52.532;6.426;2023-05-02T06:13:52;102347.72;;;6.74;100.00
63006;BME280;53704;52.532;6.426;2023-05-02T06:16:18;102347.84;;;6.58;100.00
63006;BME280;53704;52.532;6.426;2023-05-02T06:18:44;102355.31;;;6.80;100.00
63006;BME280;53704;52.532;6.426;2023-05-02T06:21:10;102360.03;;;6.76;100.00
63006;BME280;53704;52.532;6.426;2023-05-02T06:23:36;102359.44;;;6.85;100.00
63006;BME280;53704;52.532;6.426;2023-05-02T06:26:03;102362.34;;;6.95;100.00
63006;BME280;53704;52.532;6.426;2023-05-02T06:28:42;102366.72;;;6.83;100.00
63006;BME280;53704;52.532;6.426;2023-05-02T06:31:08;102376.38;;;6.99;100.00
63006;BME280;53704;52.532;6.426;2023-05-02T06:33:34;102371.22;;;6.96;100.00
63006;BME280;53704;52.532;6.426;2023-05-02T06:36:00;102372.97;;;7.10;100.00
63006;BME280;53704;52.532;6.426;2023-05-02T06:38:25;102384.69;;;7.09;100.00
63006;BME280;53704;52.532;6.426;2023-05-02T06:40:51;102379.16;;;7.24;100.00
63006;BME280;53704;52.532;6.426;2023-05-02T06:43:16;102381.09;;;7.35;100.00
63006;BME280;53704;52.532;6.426;2023-05-02T06:45:42;102388.78;;;7.40;100.00
63006;BME280;53704;52.532;6.426;2023-05-02T06:48:08;102392.69;;;7.49;100.00
63006;BME280;53704;52.532;6.426;2023-05-02T06:50:34;102396.78;;;7.54;100.00
63006;BME280;53704;52.532;6.426;2023-05-02T06:53:00;102409.66;;;7.75;100.00
63006;BME280;53704;52.532;6.426;2023-05-02T06:55:26;102412.28;;;7.49;100.00
63006;BME280;53704;52.532;6.426;2023-05-02T06:57:52;102411.34;;;7.50;100.00
63006;BME280;53704;52.532;6.426;2023-05-02T07:00:19;102422.16;;;7.61;100.00
63006;BME280;53704;52.532;6.426;2023-05-02T07:02:46;102430.41;;;7.46;100.00
63006;BME280;53704;52.532;6.426;2023-05-02T07:05:12;102424.94;;;7.47;100.00
63006;BME280;53704;52.532;6.426;2023-05-02T07:07:40;102423.38;;;7.70;100.00
63006;BME280;53704;52.532;6.426;2023-05-02T07:10:06;102435.16;;;7.68;100.00
63006;BME280;53704;52.532;6.426;2023-05-02T07:12:32;102432.06;;;7.74;100.00
63006;BME280;53704;52.532;6.426;2023-05-02T07:14:57;102431.94;;;7.63;100.00
63006;BME280;53704;52.532;6.426;2023-05-02T07:17:23;102432.03;;;7.48;100.00
63006;BME280;53704;52.532;6.426;2023-05-02T07:19:49;102447.69;;;7.54;100.00
63006;BME280;53704;52.532;6.426;2023-05-02T07:22:15;102449.63;;;7.65;100.00
63006;BME280;53704;52.532;6.426;2023-05-02T07:24:41;102452.66;;;7.73;100.00
63006;BME280;53704;52.532;6.426;2023-05-02T07:27:10;102453.63;;;7.85;100.00
63006;BME280;53704;52.532;6.426;2023-05-02T07:29:36;102460.03;;;7.83;100.00
63006;BME280;53704;52.532;6.426;2023-05-02T07:32:02;102459.94;;;8.23;100.00
63006;BME280;53704;52.532;6.426;2023-05-02T07:34:28;102455.66;;;8.20;97.21
63006;BME280;53704;52.532;6.426;2023-05-02T07:36:53;102462.75;;;8.21;93.62
63006;BME280;53704;52.532;6.426;2023-05-02T07:39:19;102462.31;;;8.14;91.53
63006;BME280;53704;52.532;6.426;2023-05-02T07:41:44;102472.06;;;8.15;89.81
63006;BME280;53704;52.532;6.426;2023-05-02T07:44:10;102465.75;;;8.17;90.12
63006;BME280;53704;52.532;6.426;2023-05-02T07:46:36;102466.72;;;8.03;89.96
63006;BME280;53704;52.532;6.426;2023-05-02T07:49:01;102473.03;;;8.27;88.25
63006;BME280;53704;52.532;6.426;2023-05-02T07:51:27;102478.84;;;8.08;86.12
63006;BME280;53704;52.532;6.426;2023-05-02T07:53:52;102476.56;;;8.28;87.11
63006;BME280;53704;52.532;6.426;2023-05-02T07:56:20;102476.81;;;8.87;90.74
63006;BME280;53704;52.532;6.426;2023-05-02T07:58:45;102483.59;;;8.80;85.83
63006;BME280;53704;52.532;6.426;2023-05-02T08:01:11;102484.31;;;8.95;88.00
63006;BME280;53704;52.532;6.426;2023-05-02T08:03:36;102481.31;;;8.87;85.67
63006;BME280;53704;52.532;6.426;2023-05-02T08:06:02;102484.94;;;8.36;85.88
63006;BME280;53704;52.532;6.426;2023-05-02T08:08:28;102486.03;;;8.59;85.81
63006;BME280;53704;52.532;6.426;2023-05-02T08:10:53;102496.34;;;8.53;84.19
63006;BME280;53704;52.532;6.426;2023-05-02T08:13:19;102503.31;;;8.55;84.79
63006;BME280;53704;52.532;6.426;2023-05-02T08:15:44;102499.34;;;8.61;94.18
63006;BME280;53704;52.532;6.426;2023-05-02T08:18:10;102496.84;;;8.71;88.99
63006;BME280;53704;52.532;6.426;2023-05-02T08:20:36;102507.72;;;8.56;90.25
63006;BME280;53704;52.532;6.426;2023-05-02T08:23:01;102505.25;;;8.53;90.55
63006;BME280;53704;52.532;6.426;2023-05-02T08:25:26;102511.13;;;8.71;94.79
63006;BME280;53704;52.532;6.426;2023-05-02T08:27:52;102520.09;;;8.96;97.06
63006;BME280;53704;52.532;6.426;2023-05-02T08:30:18;102525.56;;;8.57;93.69
63006;BME280;53704;52.532;6.426;2023-05-02T08:32:44;102520.50;;;8.53;92.63
63006;BME280;53704;52.532;6.426;2023-05-02T08:35:10;102524.75;;;8.68;92.98
63006;BME280;53704;52.532;6.426;2023-05-02T08:37:35;102527.25;;;8.45;89.71
63006;BME280;53704;52.532;6.426;2023-05-02T08:40:01;102532.06;;;8.40;88.92
63006;BME280;53704;52.532;6.426;2023-05-02T08:42:27;102541.97;;;8.65;94.24
63006;BME280;53704;52.532;6.426;2023-05-02T08:44:56;102535.63;;;8.54;91.47
63006;BME280;53704;52.532;6.426;2023-05-02T08:47:22;102544.53;;;8.67;92.16
63006;BME280;53704;52.532;6.426;2023-05-02T08:49:50;102528.09;;;8.33;89.64
63006;BME280;53704;52.532;6.426;2023-05-02T08:52:18;102540.75;;;8.69;92.71
63006;BME280;53704;52.532;6.426;2023-05-02T08:54:44;102538.53;;;8.76;89.73
63006;BME280;53704;52.532;6.426;2023-05-02T08:57:10;102551.63;;;8.81;92.59
63006;BME280;53704;52.532;6.426;2023-05-02T08:59:36;102547.03;;;8.57;93.73
63006;BME280;53704;52.532;6.426;2023-05-02T09:02:12;102548.47;;;8.87;93.01
63006;BME280;53704;52.532;6.426;2023-05-02T09:04:42;102553.78;;;9.13;92.75
63006;BME280;53704;52.532;6.426;2023-05-02T09:07:09;102546.38;;;9.40;89.01
63006;BME280;53704;52.532;6.426;2023-05-02T09:09:35;102559.31;;;9.35;87.08
63006;BME280;53704;52.532;6.426;2023-05-02T09:12:02;102561.56;;;9.04;84.94
63006;BME280;53704;52.532;6.426;2023-05-02T09:14:27;102555.41;;;9.64;91.89
63006;BME280;53704;52.532;6.426;2023-05-02T09:16:57;102559.13;;;9.50;85.30
63006;BME280;53704;52.532;6.426;2023-05-02T09:19:24;102555.47;;;9.75;85.08
63006;BME280;53704;52.532;6.426;2023-05-02T09:21:50;102560.53;;;9.18;82.34
63006;BME280;53704;52.532;6.426;2023-05-02T09:24:18;102564.16;;;9.54;84.05
63006;BME280;53704;52.532;6.426;2023-05-02T09:27:04;102561.25;;;9.93;83.52
63006;BME280;53704;52.532;6.426;2023-05-02T09:29:32;102564.03;;;9.80;78.35
63006;BME280;53704;52.532;6.426;2023-05-02T09:32:03;102565.25;;;10.11;77.08
63006;BME280;53704;52.532;6.426;2023-05-02T09:34:28;102575.97;;;10.00;77.85
63006;BME280;53704;52.532;6.426;2023-05-02T09:36:55;102588.94;;;9.71;80.14
63006;BME280;53704;52.532;6.426;2023-05-02T09:39:26;102594.09;;;9.50;79.83
63006;BME280;53704;52.532;6.426;2023-05-02T09:41:55;102591.66;;;10.06;81.04
63006;BME280;53704;52.532;6.426;2023-05-02T09:44:26;102600.34;;;9.37;80.00
63006;BME280;53704;52.532;6.426;2023-05-02T09:46:53;102609.84;;;9.30;80.07
63006;BME280;53704;52.532;6.426;2023-05-02T09:49:38;102610.13;;;9.14;78.71
63006;BME280;53704;52.532;6.426;2023-05-02T09:52:37;102613.78;;;9.74;77.29
63006;BME280;53704;52.532;6.426;2023-05-02T09:54:55;102610.63;;;9.81;78.24
63006;BME280;53704;52.532;6.426;2023-05-02T09:57:21;102609.44;;;9.60;74.24
63006;BME280;53704;52.532;6.426;2023-05-02T09:59:55;102601.06;;;10.12;75.73
63006;BME280;53704;52.532;6.426;2023-05-02T10:02:21;102603.94;;;10.22;75.68
63006;BME280;53704;52.532;6.426;2023-05-02T10:04:48;102615.03;;;9.82;76.30
63006;BME280;53704;52.532;6.426;2023-05-02T10:07:15;102618.22;;;9.38;74.71
63006;BME280;53704;52.532;6.426;2023-05-02T10:09:45;102617.66;;;9.70;70.88
63006;BME280;53704;52.532;6.426;2023-05-02T10:12:15;102612.84;;;9.63;69.90
63006;BME280;53704;52.532;6.426;2023-05-02T10:14:47;102616.59;;;10.08;72.49
63006;BME280;53704;52.532;6.426;2023-05-02T10:17:19;102616.59;;;9.73;72.18
63006;BME280;53704;52.532;6.426;2023-05-02T10:20:05;102622.03;;;10.44;73.43
63006;BME280;53704;52.532;6.426;2023-05-02T10:22:34;102620.72;;;10.25;70.58
63006;BME280;53704;52.532;6.426;2023-05-02T10:25:01;102623.56;;;10.35;74.02
63006;BME280;53704;52.532;6.426;2023-05-02T10:27:28;102622.16;;;10.54;73.06
63006;BME280;53704;52.532;6.426;2023-05-02T10:29:57;102629.25;;;10.55;73.45
63006;BME280;53704;52.532;6.426;2023-05-02T10:32:23;102633.78;;;10.65;73.84
63006;BME280;53704;52.532;6.426;2023-05-02T10:34:53;102618.88;;;10.61;72.38
63006;BME280;53704;52.532;6.426;2023-05-02T10:37:22;102624.13;;;10.63;74.63
63006;BME280;53704;52.532;6.426;2023-05-02T10:39:49;102620.97;;;10.69;72.54
63006;BME280;53704;52.532;6.426;2023-05-02T10:42:15;102618.72;;;11.42;73.38
63006;BME280;53704;52.532;6.426;2023-05-02T10:44:43;102626.22;;;11.27;73.24
63006;BME280;53704;52.532;6.426;2023-05-02T10:47:22;102627.13;;;11.60;72.54
63006;BME280;53704;52.532;6.426;2023-05-02T10:49:51;102626.31;;;10.58;67.81
63006;BME280;53704;52.532;6.426;2023-05-02T10:52:31;102621.84;;;11.15;70.38
63006;BME280;53704;52.532;6.426;2023-05-02T10:55:19;102633.72;;;10.90;70.08
63006;BME280;53704;52.532;6.426;2023-05-02T11:00:27;102639.78;;;10.58;69.40
63006;BME280;53704;52.532;6.426;2023-05-02T11:02:54;102644.56;;;10.19;69.75
63006;BME280;53704;52.532;6.426;2023-05-02T11:05:22;102638.19;;;10.44;70.56
63006;BME280;53704;52.532;6.426;2023-05-02T11:07:48;102639.13;;;10.43;71.54
63006;BME280;53704;52.532;6.426;2023-05-02T11:12:55;102638.94;;;11.36;73.12
63006;BME280;53704;52.532;6.426;2023-05-02T11:20:40;102638.06;;;12.02;69.48
63006;BME280;53704;52.532;6.426;2023-05-02T11:25:40;102656.97;;;10.91;69.14
63006;BME280;53704;52.532;6.426;2023-05-02T11:28:07;102657.56;;;11.51;71.36
63006;BME280;53704;52.532;6.426;2023-05-02T11:30:41;102655.56;;;10.51;68.97
63006;BME280;53704;52.532;6.426;2023-05-02T11:35:34;102658.75;;;10.56;68.63
63006;BME280;53704;52.532;6.426;2023-05-02T11:38:02;102654.97;;;10.59;67.12
63006;BME280;53704;52.532;6.426;2023-05-02T11:40:29;102649.78;;;11.80;66.71
63006;BME280;53704;52.532;6.426;2023-05-02T11:42:56;102657.72;;;11.27;66.46
63006;BME280;53704;52.532;6.426;2023-05-02T11:45:21;102656.00;;;11.37;64.10
63006;BME280;53704;52.532;6.426;2023-05-02T11:47:56;102661.09;;;12.06;64.21
63006;BME280;53704;52.532;6.426;2023-05-02T11:50:22;102655.75;;;11.84;64.52
63006;BME280;53704;52.532;6.426;2023-05-02T11:52:48;102652.13;;;12.59;64.63
63006;BME280;53704;52.532;6.426;2023-05-02T11:55:14;102657.44;;;13.63;59.78
63006;BME280;53704;52.532;6.426;2023-05-02T11:57:40;102652.59;;;13.57;60.35
63006;BME280;53704;52.532;6.426;2023-05-02T12:00:07;102658.06;;;14.16;58.99
63006;BME280;53704;52.532;6.426;2023-05-02T12:02:36;102653.75;;;14.52;58.06
63006;BME280;53704;52.532;6.426;2023-05-02T12:05:05;102660.19;;;14.41;57.17
63006;BME280;53704;52.532;6.426;2023-05-02T12:07:42;102659.19;;;13.84;52.88
63006;BME280;53704;52.532;6.426;2023-05-02T12:10:13;102655.75;;;14.40;53.57
63006;BME280;53704;52.532;6.426;2023-05-02T12:12:43;102663.44;;;13.67;55.46
63006;BME280;53704;52.532;6.426;2023-05-02T12:15:10;102661.34;;;14.19;55.36
63006;BME280;53704;52.532;6.426;2023-05-02T12:17:41;102666.25;;;13.46;55.94
63006;BME280;53704;52.532;6.426;2023-05-02T12:20:08;102666.28;;;13.75;57.37
63006;BME280;53704;52.532;6.426;2023-05-02T12:22:35;102679.88;;;12.82;54.89
63006;BME280;53704;52.532;6.426;2023-05-02T12:25:00;102670.69;;;13.26;58.01
63006;BME280;53704;52.532;6.426;2023-05-02T12:27:27;102674.84;;;12.57;55.75
63006;BME280;53704;52.532;6.426;2023-05-02T12:29:53;102687.53;;;12.56;57.20
63006;BME280;53704;52.532;6.426;2023-05-02T12:32:29;102687.59;;;12.45;56.20
63006;BME280;53704;52.532;6.426;2023-05-02T12:34:56;102680.84;;;13.33;56.40
63006;BME280;53704;52.532;6.426;2023-05-02T12:37:23;102687.72;;;14.27;53.23
63006;BME280;53704;52.532;6.426;2023-05-02T12:39:49;102691.84;;;14.02;50.31
63006;BME280;53704;52.532;6.426;2023-05-02T12:42:16;102692.16;;;12.96;51.44
63006;BME280;53704;52.532;6.426;2023-05-02T12:44:43;102695.06;;;12.20;54.41
63006;BME280;53704;52.532;6.426;2023-05-02T12:47:11;102687.03;;;12.93;55.63
63006;BME280;53704;52.532;6.426;2023-05-02T12:49:56;102699.53;;;12.10;55.12
63006;BME280;53704;52.532;6.426;2023-05-02T12:52:49;102709.25;;;12.34;54.11
63006;BME280;53704;52.532;6.426;2023-05-02T12:55:18;102712.72;;;12.24;54.88
63006;BME280;53704;52.532;6.426;2023-05-02T12:57:44;102708.19;;;12.46;53.83
63006;BME280;53704;52.532;6.426;2023-05-02T13:00:10;102708.25;;;13.60;53.09
63006;BME280;53704;52.532;6.426;2023-05-02T13:02:36;102706.25;;;14.61;53.93
63006;BME280;53704;52.532;6.426;2023-05-02T13:05:01;102702.69;;;12.69;51.72
63006;BME280;53704;52.532;6.426;2023-05-02T13:07:27;102705.16;;;12.39;53.72
63006;BME280;53704;52.532;6.426;2023-05-02T13:09:52;102707.25;;;13.30;53.50
63006;BME280;53704;52.532;6.426;2023-05-02T13:12:18;102715.91;;;12.51;54.49
63006;BME280;53704;52.532;6.426;2023-05-02T13:14:44;102714.59;;;12.66;54.72
63006;BME280;53704;52.532;6.426;2023-05-02T13:17:09;102703.84;;;12.76;55.90
63006;BME280;53704;52.532;6.426;2023-05-02T13:19:35;102711.66;;;13.21;55.04
63006;BME280;53704;52.532;6.426;2023-05-02T13:22:00;102718.13;;;13.09;53.81
63006;BME280;53704;52.532;6.426;2023-05-02T13:24:25;102718.13;;;13.09;52.67